KMTN

Martin State Airport

Baltimore, Maryland, USA
KMTN 191120Z 1912/2012 VRB03KT P6SM SKC FM191700 21009KT P6SM FEW250 FM200000 21010G23KT P6SM OVC150 FM200600 22009KT P6SM -SHRA OVC080 FM201000 22009KT P6SM -SHRA OVC030
Issued Valid From Valid To
Oct-19 @ 11:20 UTC
(2 hours ago)
Oct-19 @ 12:00 UTC
(2 hours ago)
Oct-20 @ 12:00 UTC
(in 22 hours)
Oct-19 @ 12:00 to Oct-19 @ 17:00
KMTN 191120Z 1912/2012 VRB03KT P6SM SKC
Wind Visibility Clouds
Variable at 3 knots Greater than 6 miles
  • Clear skies
From Oct-19 @ 17:00 to Oct-20 @ 00:00
FM191700 21009KT P6SM FEW250
Wind Visibility Clouds
210° at 9 knots Greater than 6 miles
  • Few at 25,000' AGL
From Oct-20 @ 00:00 to Oct-20 @ 06:00
FM200000 21010G23KT P6SM OVC150
Wind Visibility Clouds
210° at 10 knots
 Gusting to 23 knots
Greater than 6 miles
  • Overcast at 15,000' AGL
From Oct-20 @ 06:00 to Oct-20 @ 10:00
FM200600 22009KT P6SM -SHRA OVC080
Wind Visibility Clouds Conditions
220° at 9 knots Greater than 6 miles
  • Overcast at 8,000' AGL
  • Light Rain
From Oct-20 @ 10:00 to Oct-20 @ 12:00
FM201000 22009KT P6SM -SHRA OVC030
Wind Visibility Clouds Conditions
220° at 9 knots Greater than 6 miles
  • Overcast at 3,000' AGL
  • Light Rain
KMTN 191120Z 1912/2012 VRB03KT P6SM SKC FM191700 21009KT P6SM FEW250 FM200000 21010G23KT P6SM OVC150 FM200600 22009KT P6SM -SHRA OVC080 FM201000 22009KT P6SM -SHRA OVC030
Issued Oct-19 @ 11:20 UTC
(2 hours ago)
Valid From Oct-19 @ 12:00 UTC
(2 hours ago)
Valid To Oct-20 @ 12:00 UTC
(in 22 hours)
Oct-19 @ 12:00 - Oct-19 @ 17:00
Wind Visibility
Variable at 3 knots Greater than 6 miles
Clouds
  • Clear skies
From Oct-19 @ 17:00 - Oct-20 @ 00:00
Wind Visibility
210° at 9 knots Greater than 6 miles
Clouds
  • Few at 25,000' AGL
From Oct-20 @ 00:00 - Oct-20 @ 06:00
Wind Visibility
210° at 10 knots
 Gusting to 23 knots
Greater than 6 miles
Clouds
  • Overcast at 15,000' AGL
From Oct-20 @ 06:00 - Oct-20 @ 10:00
Wind Visibility
220° at 9 knots Greater than 6 miles
Clouds
  • Overcast at 8,000' AGL
Conditions
  • Light Rain
From Oct-20 @ 10:00 - Oct-20 @ 12:00
Wind Visibility
220° at 9 knots Greater than 6 miles
Clouds
  • Overcast at 3,000' AGL
Conditions
  • Light Rain